Time;durP1;ratioP1;P1;durP2;ratioP2;P2;SDS_P1;SDS_P2;PMS_P1;PMS_P2;Temp;Humidity;BMP_temperature;BMP_pressure;BME280_temperature;BME280_humidity;BME280_pressure;Samples;Min_cycle;Max_cycle;Signal;HPM_P1;HPM_P2
2023/08/04 00:01:22;;;;;;;7.47;2.28;;;16.50;91.80;;;;;;5056252;28;20027;-70
2023/08/04 00:03:47;;;;;;;12.07;5.13;;;16.50;92.10;;;;;;5068685;28;20031;-70
2023/08/04 00:06:13;;;;;;;8.30;3.90;;;16.50;91.80;;;;;;5069097;28;20096;-70
2023/08/04 00:08:39;;;;;;;8.85;3.40;;;16.50;91.90;;;;;;5070025;28;20491;-70
2023/08/04 00:11:04;;;;;;;6.13;2.83;;;16.50;91.90;;;;;;5072849;28;20103;-70
2023/08/04 00:13:31;;;;;;;5.97;2.60;;;16.50;91.90;;;;;;5071374;28;20028;-70
2023/08/04 00:16:07;;;;;;;6.25;2.20;;;16.50;92.00;;;;;;5072447;28;20016;-70
2023/08/04 00:18:33;;;;;;;6.70;2.50;;;16.50;92.00;;;;;;5066997;28;20092;-70
2023/08/04 00:20:59;;;;;;;7.55;2.70;;;16.50;91.90;;;;;;5068906;28;20484;-70
2023/08/04 00:23:25;;;;;;;6.28;2.35;;;16.50;91.90;;;;;;5072711;28;20025;-70
2023/08/04 00:25:50;;;;;;;6.88;2.95;;;16.50;92.00;;;;;;5072441;28;20054;-70
2023/08/04 00:28:16;;;;;;;5.07;2.50;;;16.50;92.10;;;;;;5072498;28;20101;-70
2023/08/04 00:30:41;;;;;;;7.28;2.80;;;16.50;92.10;;;;;;5072023;28;20304;-70
2023/08/04 00:33:08;;;;;;;6.55;2.63;;;16.50;92.10;;;;;;5072519;28;20429;-70
2023/08/04 00:35:33;;;;;;;5.88;2.40;;;16.60;92.10;;;;;;5072139;28;20017;-70
2023/08/04 00:37:59;;;;;;;5.25;2.60;;;16.50;92.00;;;;;;5065243;28;20032;-70
2023/08/04 00:40:24;;;;;;;8.77;2.90;;;16.60;92.10;;;;;;5072087;28;20090;-70
2023/08/04 00:42:50;;;;;;;7.30;2.30;;;16.50;92.10;;;;;;5072139;28;20309;-70
2023/08/04 00:45:16;;;;;;;6.25;2.50;;;16.50;92.20;;;;;;5071909;28;20490;-70
2023/08/04 00:47:41;;;;;;;5.95;2.28;;;16.50;92.20;;;;;;5072087;28;20039;-70
2023/08/04 00:50:08;;;;;;;8.40;2.75;;;16.50;92.20;;;;;;5071905;28;20021;-70
2023/08/04 00:52:36;;;;;;;5.22;2.40;;;16.50;92.20;;;;;;5070606;28;20487;-70
2023/08/04 00:55:01;;;;;;;8.23;2.83;;;16.50;92.20;;;;;;5067910;28;20056;-70
2023/08/04 00:57:27;;;;;;;5.63;2.15;;;16.50;92.20;;;;;;5071400;28;20048;-70
2023/08/04 00:59:55;;;;;;;4.95;2.33;;;16.40;92.20;;;;;;5072124;28;20012;-69
2023/08/04 01:02:20;;;;;;;5.85;2.60;;;16.50;92.20;;;;;;5071893;28;20025;-70
2023/08/04 01:04:46;;;;;;;4.85;2.50;;;16.40;92.30;;;;;;5071756;28;20039;-70
2023/08/04 01:07:25;;;;;;;5.50;2.53;;;16.40;92.40;;;;;;5071671;28;20056;-70
2023/08/04 01:09:53;;;;;;;5.55;3.00;;;16.40;92.80;;;;;;5071605;28;20024;-70
2023/08/04 01:12:26;;;;;;;7.53;2.70;;;16.40;92.40;;;;;;5067439;28;21511;-70
2023/08/04 01:14:54;;;;;;;5.22;2.38;;;16.30;92.40;;;;;;5064807;28;20032;-70
2023/08/04 01:17:28;;;;;;;6.00;2.67;;;16.30;92.50;;;;;;5071564;28;20016;-70
2023/08/04 01:19:55;;;;;;;7.38;2.60;;;16.30;92.50;;;;;;5071213;28;20617;-70
2023/08/04 01:22:21;;;;;;;4.57;2.40;;;16.30;92.60;;;;;;5070197;28;20061;-70
2023/08/04 01:24:48;;;;;;;4.78;2.60;;;16.30;92.60;;;;;;5070995;28;20086;-70
2023/08/04 01:27:17;;;;;;;6.72;2.80;;;16.30;92.60;;;;;;5071150;28;20029;-70
2023/08/04 01:29:44;;;;;;;4.20;2.38;;;16.30;92.60;;;;;;5069757;28;20035;-70
2023/08/04 01:32:10;;;;;;;8.25;2.55;;;16.40;92.60;;;;;;5057632;28;20031;-70
2023/08/04 01:34:36;;;;;;;6.82;2.90;;;16.40;92.60;;;;;;5070296;28;20112;-70
2023/08/04 01:37:02;;;;;;;6.85;2.95;;;16.40;92.50;;;;;;5070791;28;20091;-70
2023/08/04 01:39:28;;;;;;;8.13;3.42;;;16.50;92.50;;;;;;5070421;28;20391;-70
2023/08/04 01:41:53;;;;;;;8.27;2.95;;;16.50;92.50;;;;;;5071028;28;20091;-70
2023/08/04 01:44:19;;;;;;;6.65;2.90;;;16.50;92.50;;;;;;5071011;28;20199;-70
2023/08/04 01:46:45;;;;;;;6.60;2.50;;;16.50;92.50;;;;;;5070834;28;20387;-70
2023/08/04 01:49:10;;;;;;;5.85;2.72;;;16.50;92.50;;;;;;5064726;28;20029;-70
2023/08/04 01:51:36;;;;;;;4.22;2.30;;;16.50;92.50;;;;;;5065355;28;20048;-70
2023/08/04 01:54:02;;;;;;;5.53;2.35;;;16.50;92.50;;;;;;5070538;28;20060;-70
2023/08/04 01:56:27;;;;;;;5.90;2.20;;;16.60;92.50;;;;;;5070746;28;20052;-70
2023/08/04 01:58:53;;;;;;;5.07;2.40;;;16.60;92.50;;;;;;5070757;28;20027;-69
2023/08/04 02:01:20;;;;;;;5.20;2.40;;;16.60;92.50;;;;;;5070440;28;20032;-70
2023/08/04 02:03:45;;;;;;;5.53;1.95;;;16.60;92.40;;;;;;5070559;28;20033;-69
2023/08/04 02:06:11;;;;;;;5.95;2.30;;;16.70;92.40;;;;;;5068968;28;20045;-70
2023/08/04 02:08:37;;;;;;;3.90;2.20;;;16.70;92.40;;;;;;5065712;28;20021;-69
2023/08/04 02:11:02;;;;;;;5.78;2.30;;;16.70;92.40;;;;;;5070444;28;20107;-70
2023/08/04 02:13:28;;;;;;;5.45;2.50;;;16.70;92.30;;;;;;5070569;28;20027;-70
2023/08/04 02:15:53;;;;;;;5.18;1.98;;;16.70;92.40;;;;;;5070246;28;20035;-70
2023/08/04 02:18:19;;;;;;;4.30;2.30;;;16.70;92.40;;;;;;5070468;28;20031;-71
2023/08/04 02:20:45;;;;;;;4.75;2.50;;;16.70;92.40;;;;;;5070353;28;20021;-70
2023/08/04 02:23:10;;;;;;;3.92;2.13;;;16.80;92.40;;;;;;5069983;28;20479;-70
2023/08/04 02:25:36;;;;;;;5.20;2.20;;;16.70;92.30;;;;;;5068509;28;20091;-70
2023/08/04 02:28:02;;;;;;;4.93;2.20;;;16.70;92.30;;;;;;5068355;28;20498;-70
2023/08/04 02:30:28;;;;;;;4.32;2.13;;;16.70;92.30;;;;;;5070061;28;20463;-70
2023/08/04 02:32:53;;;;;;;5.82;2.30;;;16.70;92.40;;;;;;5069128;28;20028;-70
2023/08/04 02:35:19;;;;;;;4.38;2.13;;;16.70;92.40;;;;;;5069771;28;20032;-70
2023/08/04 02:37:46;;;;;;;7.50;2.42;;;16.70;92.40;;;;;;5069951;28;20384;-70
2023/08/04 02:40:11;;;;;;;4.82;2.50;;;16.70;92.40;;;;;;5069544;28;20111;-70
2023/08/04 02:42:37;;;;;;;6.50;2.95;;;16.70;92.40;;;;;;5070825;28;20100;-70
2023/08/04 02:45:03;;;;;;;5.40;2.70;;;16.60;92.40;;;;;;5054653;28;20104;-70
2023/08/04 02:47:29;;;;;;;7.95;2.92;;;16.60;92.50;;;;;;5069704;28;20021;-70
2023/08/04 02:49:54;;;;;;;5.32;2.65;;;16.60;92.80;;;;;;5070040;28;20029;-70
2023/08/04 02:52:20;;;;;;;6.50;2.83;;;16.60;92.50;;;;;;5069591;28;20028;-71
2023/08/04 02:54:46;;;;;;;5.28;2.55;;;16.60;92.60;;;;;;5067411;28;20386;-70
2023/08/04 02:57:11;;;;;;;5.40;2.78;;;16.60;92.60;;;;;;5069971;28;20027;-70
2023/08/04 02:59:37;;;;;;;5.85;2.55;;;16.50;92.60;;;;;;5069691;28;20430;-70
2023/08/04 03:02:03;;;;;;;6.15;2.72;;;16.50;92.70;;;;;;5063645;28;20048;-70
2023/08/04 03:04:28;;;;;;;4.68;2.88;;;16.50;92.70;;;;;;5067566;28;20025;-70
2023/08/04 03:06:54;;;;;;;6.25;2.65;;;16.50;92.70;;;;;;5069567;28;20025;-70
2023/08/04 03:09:19;;;;;;;5.65;2.90;;;16.50;92.70;;;;;;5068429;28;20024;-70
2023/08/04 03:11:45;;;;;;;7.43;2.60;;;16.50;92.70;;;;;;5069715;28;20387;-70
2023/08/04 03:14:10;;;;;;;6.55;3.13;;;16.50;92.70;;;;;;5069596;28;20108;-70
2023/08/04 03:16:36;;;;;;;7.18;3.28;;;16.50;92.70;;;;;;5069646;28;20036;-70
2023/08/04 03:19:01;;;;;;;6.75;3.50;;;16.50;92.80;;;;;;5069617;28;20482;-70
2023/08/04 03:21:27;;;;;;;6.95;2.85;;;16.50;92.90;;;;;;5061711;28;20016;-70
2023/08/04 03:23:53;;;;;;;7.13;3.00;;;16.50;92.90;;;;;;5067909;28;20119;-70
2023/08/04 03:26:18;;;;;;;4.82;2.70;;;16.50;92.90;;;;;;5069445;28;20032;-70
2023/08/04 03:28:44;;;;;;;6.30;3.08;;;16.50;92.90;;;;;;5069631;28;20068;-70
2023/08/04 03:31:09;;;;;;;5.93;2.85;;;16.60;92.90;;;;;;5069330;28;20041;-70
2023/08/04 03:33:35;;;;;;;6.03;2.85;;;16.60;92.80;;;;;;5069832;28;20028;-70
2023/08/04 03:36:00;;;;;;;11.65;4.70;;;16.50;92.80;;;;;;5069456;28;20016;-70
2023/08/04 03:38:26;;;;;;;7.03;3.67;;;16.50;92.80;;;;;;5068453;28;20096;-70
2023/08/04 03:40:52;;;;;;;6.07;3.28;;;16.50;92.80;;;;;;5059725;28;20525;-71
2023/08/04 03:43:17;;;;;;;6.88;3.35;;;16.50;92.80;;;;;;5070550;28;20028;-70
2023/08/04 03:45:43;;;;;;;5.72;3.30;;;16.50;92.80;;;;;;5072921;28;20028;-69
2023/08/04 03:48:08;;;;;;;6.00;2.97;;;16.50;93.10;;;;;;5073179;28;20103;-70
2023/08/04 03:50:34;;;;;;;7.75;3.10;;;16.50;92.90;;;;;;5072893;28;20028;-70
2023/08/04 03:53:00;;;;;;;6.78;3.38;;;16.50;92.90;;;;;;5073406;28;20028;-70
2023/08/04 03:55:27;;;;;;;5.88;3.25;;;16.50;92.90;;;;;;5072797;28;20028;-71
2023/08/04 03:57:52;;;;;;;7.43;3.80;;;16.50;92.90;;;;;;5062271;28;20104;-70
2023/08/04 04:00:18;;;;;;;6.97;3.55;;;16.50;92.90;;;;;;5071673;28;20113;-70
2023/08/04 04:02:44;;;;;;;6.38;3.65;;;16.50;92.90;;;;;;5073261;28;20482;-70
2023/08/04 04:05:10;;;;;;;7.18;3.38;;;16.50;92.90;;;;;;5072449;28;20027;-70
2023/08/04 04:07:36;;;;;;;6.75;3.50;;;16.50;92.90;;;;;;5072865;28;20205;-70
2023/08/04 04:10:02;;;;;;;8.75;3.55;;;16.50;93.00;;;;;;5071586;28;20066;-70
2023/08/04 04:12:27;;;;;;;6.95;3.40;;;16.50;93.00;;;;;;5072508;28;20062;-70
2023/08/04 04:14:53;;;;;;;8.48;3.58;;;16.50;93.10;;;;;;5065299;28;20032;-70
2023/08/04 04:17:19;;;;;;;7.95;3.70;;;16.50;93.10;;;;;;5070130;28;20112;-70
2023/08/04 04:19:44;;;;;;;7.03;3.63;;;16.50;93.10;;;;;;5072567;28;20024;-70
2023/08/04 04:22:10;;;;;;;6.70;3.20;;;16.50;93.10;;;;;;5072483;28;20052;-70
2023/08/04 04:24:36;;;;;;;8.50;3.10;;;16.50;93.10;;;;;;5072400;28;20035;-70
2023/08/04 04:27:02;;;;;;;8.68;3.63;;;16.50;93.10;;;;;;5072242;28;20074;-70
2023/08/04 04:29:28;;;;;;;7.35;3.47;;;16.50;93.10;;;;;;5072551;28;20044;-70
2023/08/04 04:31:54;;;;;;;8.18;3.42;;;16.50;93.10;;;;;;5072257;28;20063;-70
2023/08/04 04:34:19;;;;;;;8.68;3.85;;;16.60;93.10;;;;;;5065911;28;20151;-70
2023/08/04 04:36:45;;;;;;;9.35;3.58;;;16.60;93.10;;;;;;5072228;28;20103;-70
2023/08/04 04:39:11;;;;;;;8.25;3.60;;;16.60;93.10;;;;;;5072288;28;20029;-70
2023/08/04 04:41:38;;;;;;;8.45;3.28;;;16.60;93.10;;;;;;5072632;28;20377;-70
2023/08/04 04:44:04;;;;;;;6.85;3.35;;;16.60;93.20;;;;;;5072143;28;20044;-70
2023/08/04 04:46:30;;;;;;;7.28;3.15;;;16.70;93.20;;;;;;5072189;28;20455;-70
2023/08/04 04:48:56;;;;;;;7.72;3.05;;;16.70;93.20;;;;;;5072503;28;20479;-70
2023/08/04 04:51:21;;;;;;;6.18;2.95;;;16.70;93.20;;;;;;5070814;28;20031;-70
2023/08/04 04:53:47;;;;;;;6.38;3.00;;;16.80;93.10;;;;;;5070403;28;20044;-70
2023/08/04 04:56:12;;;;;;;6.72;2.72;;;16.80;93.10;;;;;;5071053;28;20029;-70
2023/08/04 04:58:38;;;;;;;4.90;2.85;;;16.80;93.10;;;;;;5071775;28;20023;-70
2023/08/04 05:01:04;;;;;;;5.68;2.63;;;16.80;93.00;;;;;;5071680;28;20024;-70
2023/08/04 05:03:30;;;;;;;6.68;3.00;;;16.80;93.00;;;;;;5071587;28;20105;-70
2023/08/04 05:05:56;;;;;;;4.95;2.50;;;16.80;93.00;;;;;;5070344;28;20502;-70
2023/08/04 05:08:21;;;;;;;5.95;2.60;;;16.80;93.10;;;;;;5071643;28;20021;-70
2023/08/04 05:10:53;;;;;;;4.05;2.35;;;16.90;93.00;;;;;;5065352;28;20320;-70
2023/08/04 05:13:19;;;;;;;4.47;2.50;;;16.90;93.00;;;;;;5071037;28;20024;-70
2023/08/04 05:15:49;;;;;;;6.43;2.85;;;16.90;93.00;;;;;;5071116;28;20020;-70
2023/08/04 05:18:17;;;;;;;5.70;2.72;;;16.90;93.00;;;;;;5071454;28;20103;-70
2023/08/04 05:20:45;;;;;;;6.90;2.88;;;16.90;93.00;;;;;;5071289;28;20028;-70
2023/08/04 05:23:10;;;;;;;5.57;2.60;;;16.90;93.10;;;;;;5071353;28;20052;-70
2023/08/04 05:25:36;;;;;;;6.22;2.90;;;16.90;93.00;;;;;;5071239;28;20086;-70
2023/08/04 05:28:24;;;;;;;4.90;2.50;;;16.90;93.00;;;;;;5069170;28;20025;-70
2023/08/04 05:30:57;;;;;;;4.63;2.50;;;16.90;93.00;;;;;;5065788;28;20040;-70
2023/08/04 05:33:24;;;;;;;4.78;2.42;;;16.90;93.00;;;;;;5071154;28;20024;-70
2023/08/04 05:35:50;;;;;;;4.72;2.65;;;17.00;92.80;;;;;;5071065;28;20095;-70
2023/08/04 05:38:15;;;;;;;4.35;2.22;;;17.00;92.70;;;;;;5071231;28;20162;-70
2023/08/04 05:40:44;;;;;;;5.60;2.25;;;17.00;92.60;;;;;;5070977;28;20473;-70
2023/08/04 05:43:10;;;;;;;3.75;2.20;;;17.10;92.60;;;;;;5070816;28;20467;-70
2023/08/04 05:45:37;;;;;;;4.57;2.47;;;17.10;92.50;;;;;;5068592;28;20024;-70
2023/08/04 05:48:04;;;;;;;4.18;1.90;;;17.10;92.40;;;;;;5065813;28;20025;-70
2023/08/04 05:50:29;;;;;;;4.57;2.10;;;17.10;92.30;;;;;;5070835;28;20021;-70
2023/08/04 05:52:56;;;;;;;3.50;2.15;;;17.20;92.30;;;;;;5069305;28;20028;-70
2023/08/04 05:55:21;;;;;;;4.93;2.33;;;17.20;92.30;;;;;;5070700;28;20375;-70
2023/08/04 05:57:47;;;;;;;2.80;1.98;;;17.20;92.30;;;;;;5070320;28;20031;-70
2023/08/04 06:00:13;;;;;;;4.55;2.10;;;17.30;92.30;;;;;;5070719;28;20515;-70
2023/08/04 06:02:38;;;;;;;4.35;2.30;;;17.30;92.30;;;;;;5070503;28;20086;-70
2023/08/04 06:05:04;;;;;;;3.35;2.17;;;17.30;92.20;;;;;;5065958;28;20017;-70
2023/08/04 06:07:30;;;;;;;2.92;2.10;;;17.30;92.20;;;;;;5070134;28;20025;-70
2023/08/04 06:09:55;;;;;;;4.18;2.15;;;17.40;92.20;;;;;;5070602;28;20075;-70
2023/08/04 06:12:21;;;;;;;3.92;2.20;;;17.40;92.20;;;;;;5070153;28;20367;-70
2023/08/04 06:14:47;;;;;;;4.18;1.85;;;17.40;92.20;;;;;;5070178;28;20033;-70
2023/08/04 06:17:12;;;;;;;3.25;2.45;;;17.50;92.10;;;;;;5069072;28;20407;-70
2023/08/04 06:19:43;;;;;;;5.57;2.22;;;17.50;92.10;;;;;;5070284;28;20406;-70
2023/08/04 06:22:09;;;;;;;3.55;1.95;;;17.70;92.10;;;;;;5068816;28;20055;-70
2023/08/04 06:24:34;;;;;;;4.55;2.00;;;17.90;91.80;;;;;;5068597;28;20024;-70
2023/08/04 06:27:00;;;;;;;5.10;2.10;;;17.90;91.60;;;;;;5069937;28;20036;-70
2023/08/04 06:29:26;;;;;;;4.68;2.10;;;17.90;91.50;;;;;;5068649;28;20025;-70
2023/08/04 06:31:51;;;;;;;4.05;2.25;;;18.00;91.50;;;;;;5070088;28;20429;-70
2023/08/04 06:34:17;;;;;;;4.38;2.25;;;18.00;91.40;;;;;;5069988;28;20036;-70
2023/08/04 06:36:47;;;;;;;7.53;2.55;;;18.10;91.40;;;;;;5070147;28;20090;-70
2023/08/04 06:39:13;;;;;;;3.95;2.20;;;18.10;91.30;;;;;;5069964;28;20546;-70
2023/08/04 06:41:39;;;;;;;3.67;2.00;;;18.20;91.20;;;;;;5060862;28;20099;-70
2023/08/04 06:44:05;;;;;;;4.43;2.08;;;18.20;91.20;;;;;;5069813;28;20310;-70
2023/08/04 06:46:31;;;;;;;3.05;2.00;;;18.30;91.10;;;;;;5070060;28;20102;-70
2023/08/04 06:48:56;;;;;;;5.80;2.30;;;18.40;91.10;;;;;;5070054;28;20387;-70
2023/08/04 06:51:22;;;;;;;3.28;1.98;;;18.40;90.90;;;;;;5070407;28;20079;-71
2023/08/04 06:53:48;;;;;;;4.60;2.20;;;18.50;90.80;;;;;;5069835;28;20032;-70
2023/08/04 06:56:14;;;;;;;3.22;1.98;;;18.50;90.70;;;;;;5069781;28;20020;-70
2023/08/04 06:58:39;;;;;;;4.05;2.20;;;18.50;90.70;;;;;;5066876;28;20062;-70
2023/08/04 07:01:05;;;;;;;3.70;2.30;;;18.60;90.60;;;;;;5063317;28;20526;-70
2023/08/04 07:03:30;;;;;;;2.40;1.95;;;18.70;90.50;;;;;;5070052;28;20024;-70
2023/08/04 07:05:56;;;;;;;4.40;2.08;;;18.70;90.30;;;;;;5069733;28;20074;-70
2023/08/04 07:08:21;;;;;;;3.95;2.10;;;18.80;90.20;;;;;;5068687;28;20016;-70
2023/08/04 07:10:47;;;;;;;4.20;1.95;;;19.00;90.00;;;;;;5069566;28;20472;-70
2023/08/04 07:13:13;;;;;;;3.50;1.80;;;19.20;89.50;;;;;;5069876;28;20029;-70
2023/08/04 07:15:38;;;;;;;4.07;1.95;;;19.30;89.00;;;;;;5069492;28;20021;-70
2023/08/04 07:18:04;;;;;;;4.53;2.10;;;19.80;87.60;;;;;;5066064;28;20020;-70
2023/08/04 07:20:31;;;;;;;2.85;1.70;;;20.10;86.30;;;;;;5073553;28;20025;-70
2023/08/04 07:22:57;;;;;;;3.55;2.00;;;20.30;85.70;;;;;;5073671;28;20023;-70
2023/08/04 07:25:23;;;;;;;3.28;1.90;;;20.40;85.10;;;;;;5073478;28;20029;-70
2023/08/04 07:27:48;;;;;;;3.22;1.83;;;20.40;84.90;;;;;;5073685;28;20032;-70
2023/08/04 07:30:15;;;;;;;2.58;1.80;;;20.30;84.90;;;;;;5073891;28;20027;-70
2023/08/04 07:32:41;;;;;;;2.45;1.70;;;20.20;85.10;;;;;;5073634;28;20028;-70
2023/08/04 07:35:07;;;;;;;3.88;2.00;;;20.10;85.40;;;;;;5071873;28;20039;-70
2023/08/04 07:37:33;;;;;;;3.40;1.85;;;20.00;85.60;;;;;;5071644;28;20074;-70
2023/08/04 07:39:59;;;;;;;2.45;1.60;;;20.00;86.00;;;;;;5073335;28;20028;-70
2023/08/04 07:42:25;;;;;;;4.15;1.80;;;20.00;86.20;;;;;;5073340;28;20031;-70
2023/08/04 07:44:50;;;;;;;4.15;2.20;;;20.00;86.30;;;;;;5073187;28;20071;-70
2023/08/04 07:47:16;;;;;;;4.25;1.90;;;20.00;86.30;;;;;;5073111;28;20067;-69
2023/08/04 07:49:42;;;;;;;5.22;2.30;;;20.00;86.10;;;;;;5073303;28;20125;-70
2023/08/04 07:52:07;;;;;;;5.78;2.47;;;20.00;85.90;;;;;;5073076;28;20025;-70
2023/08/04 07:54:34;;;;;;;4.85;2.70;;;20.00;85.60;;;;;;5063607;28;20095;-70
2023/08/04 07:57:01;;;;;;;4.35;2.47;;;20.00;85.60;;;;;;5069062;28;20100;-70
2023/08/04 07:59:26;;;;;;;3.88;2.58;;;20.00;85.70;;;;;;5053004;28;20032;-70
2023/08/04 08:01:52;;;;;;;4.60;2.00;;;20.00;85.70;;;;;;5052973;28;20021;-70
2023/08/04 08:04:18;;;;;;;3.90;2.20;;;20.00;85.50;;;;;;5052858;28;20515;-70
2023/08/04 08:06:43;;;;;;;3.35;2.10;;;20.10;85.20;;;;;;5052726;28;20024;-70
2023/08/04 08:09:11;;;;;;;3.58;2.00;;;20.00;85.00;;;;;;5052703;28;20029;-70
2023/08/04 08:11:37;;;;;;;4.03;2.50;;;20.00;85.40;;;;;;5052374;28;20103;-70
2023/08/04 08:14:03;;;;;;;3.70;2.20;;;20.10;85.50;;;;;;5065497;28;20173;-70
2023/08/04 08:16:28;;;;;;;3.78;2.10;;;20.00;85.30;;;;;;5071217;28;20598;-70
2023/08/04 08:18:54;;;;;;;4.20;2.20;;;20.00;85.30;;;;;;5072419;28;20048;-70
2023/08/04 08:21:19;;;;;;;5.18;2.38;;;20.00;85.30;;;;;;5072485;28;20033;-70
2023/08/04 08:23:45;;;;;;;3.47;1.92;;;20.00;85.70;;;;;;5072168;28;20063;-70
2023/08/04 08:26:11;;;;;;;4.45;2.30;;;20.00;85.90;;;;;;5072879;28;20362;-70
2023/08/04 08:28:36;;;;;;;3.47;2.00;;;20.20;85.00;;;;;;5072373;28;20025;-70
2023/08/04 08:31:02;;;;;;;3.40;2.10;;;20.30;84.50;;;;;;5066913;28;20499;-70
2023/08/04 08:33:27;;;;;;;3.75;1.80;;;20.40;83.90;;;;;;5072240;28;20016;-71
2023/08/04 08:35:54;;;;;;;3.05;1.83;;;20.40;83.00;;;;;;5071969;28;20035;-70
2023/08/04 08:38:20;;;;;;;2.55;1.42;;;20.30;82.80;;;;;;5072293;28;20025;-70
2023/08/04 08:40:48;;;;;;;1.88;1.40;;;20.20;82.90;;;;;;5072232;28;20021;-70
2023/08/04 08:43:15;;;;;;;2.33;1.27;;;20.30;82.80;;;;;;5072128;28;20020;-70
2023/08/04 08:45:44;;;;;;;2.50;1.60;;;20.20;82.50;;;;;;5072030;28;20042;-70
2023/08/04 08:48:10;;;;;;;2.75;1.92;;;20.10;82.20;;;;;;5070334;28;20024;-70
2023/08/04 08:50:39;;;;;;;2.42;1.60;;;20.00;82.20;;;;;;5057169;28;20023;-70
2023/08/04 08:53:14;;;;;;;1.67;1.58;;;20.00;82.30;;;;;;5071704;28;20120;-70
2023/08/04 08:55:40;;;;;;;1.85;1.25;;;20.20;82.30;;;;;;5071510;28;20078;-70
2023/08/04 08:58:07;;;;;;;1.27;1.10;;;20.40;80.70;;;;;;5071862;28;20020;-70
2023/08/04 09:00:34;;;;;;;2.40;1.20;;;20.70;79.90;;;;;;5071789;28;20479;-70
2023/08/04 09:03:02;;;;;;;1.45;1.10;;;20.80;78.70;;;;;;5071808;28;20025;-70
2023/08/04 09:05:31;;;;;;;2.53;1.38;;;20.90;78.20;;;;;;5071785;28;20503;-70
2023/08/04 09:07:57;;;;;;;1.67;1.30;;;21.10;78.10;;;;;;5069206;28;20025;-70
2023/08/04 09:10:22;;;;;;;3.22;1.23;;;21.20;77.50;;;;;;5071654;28;20032;-69
2023/08/04 09:12:51;;;;;;;2.53;1.65;;;21.30;77.10;;;;;;5071923;28;20479;-70
2023/08/04 09:15:17;;;;;;;2.25;1.30;;;21.40;76.50;;;;;;5071864;28;20017;-70
2023/08/04 09:17:44;;;;;;;2.60;1.33;;;21.50;75.70;;;;;;5072176;28;20400;-70
2023/08/04 09:20:25;;;;;;;2.03;1.38;;;21.60;75.50;;;;;;5072155;28;20532;-70
2023/08/04 09:22:51;;;;;;;2.03;1.20;;;21.70;75.60;;;;;;5071516;28;20024;-71
2023/08/04 09:25:16;;;;;;;1.80;1.10;;;21.70;75.50;;;;;;5066907;28;20285;-70
2023/08/04 09:27:43;;;;;;;2.65;1.25;;;21.70;75.40;;;;;;5069975;28;20080;-70
2023/08/04 09:30:10;;;;;;;2.92;1.25;;;21.60;75.10;;;;;;5071515;28;20021;-70
2023/08/04 09:33:02;;;;;;;1.95;1.17;;;21.60;75.90;;;;;;5071264;28;20157;-70
2023/08/04 09:35:28;;;;;;;;;;;21.80;74.40;;;;;;5070490;28;20055;-70
2023/08/04 09:37:56;;;;;;;1.60;1.20;;;21.90;74.10;;;;;;5071168;28;20290;-70
2023/08/04 09:40:22;;;;;;;1.55;1.13;;;22.00;73.20;;;;;;5071074;28;20031;-71
2023/08/04 09:42:48;;;;;;;2.70;1.42;;;22.10;73.10;;;;;;5070873;28;20095;-70
2023/08/04 09:45:15;;;;;;;1.23;1.05;;;22.10;72.50;;;;;;5067294;28;20448;-70
2023/08/04 09:47:46;;;;;;;1.65;1.20;;;22.20;72.70;;;;;;5070877;28;20437;-71
2023/08/04 09:50:12;;;;;;;3.00;1.50;;;22.40;72.50;;;;;;5071056;28;20026;-70
2023/08/04 09:52:37;;;;;;;2.40;1.30;;;22.50;72.00;;;;;;5070632;28;20025;-70
2023/08/04 09:55:08;;;;;;;2.05;1.10;;;22.40;71.60;;;;;;5070468;28;20078;-70
2023/08/04 09:57:34;;;;;;;2.27;1.30;;;22.30;71.80;;;;;;5070716;28;20087;-70
2023/08/04 10:00:00;;;;;;;1.90;1.10;;;22.30;72.10;;;;;;5070727;28;20025;-71
2023/08/04 10:02:27;;;;;;;1.85;1.00;;;22.30;72.00;;;;;;5061884;28;20036;-70
2023/08/04 10:04:53;;;;;;;1.52;1.15;;;22.40;71.80;;;;;;5065723;28;20032;-70
2023/08/04 10:07:19;;;;;;;1.30;1.00;;;22.60;71.10;;;;;;5070350;28;20070;-70
2023/08/04 10:09:49;;;;;;;1.65;1.10;;;22.60;70.80;;;;;;5070252;28;20024;-70
2023/08/04 10:12:16;;;;;;;1.77;0.77;;;22.60;69.60;;;;;;5070467;28;20024;-70
2023/08/04 10:14:43;;;;;;;1.17;0.80;;;22.50;68.80;;;;;;5068917;28;20123;-70
2023/08/04 10:17:09;;;;;;;1.30;0.95;;;22.40;68.90;;;;;;5070453;28;20097;-70
2023/08/04 10:19:35;;;;;;;2.25;1.00;;;22.40;69.10;;;;;;5068553;28;20090;-70
2023/08/04 10:22:11;;;;;;;1.42;0.90;;;22.40;69.00;;;;;;5062734;28;20027;-70
2023/08/04 10:24:40;;;;;;;1.95;0.95;;;22.40;69.00;;;;;;5069603;28;20024;-70
2023/08/04 10:27:18;;;;;;;1.42;0.90;;;22.40;69.10;;;;;;5070119;28;20182;-70
2023/08/04 10:29:44;;;;;;;2.90;1.00;;;22.60;69.10;;;;;;5070173;28;20089;-70
2023/08/04 10:32:10;;;;;;;1.27;0.90;;;22.80;69.10;;;;;;5070099;28;20535;-70
2023/08/04 10:34:43;;;;;;;2.53;1.10;;;23.00;68.80;;;;;;5068710;28;20065;-71
2023/08/04 10:37:12;;;;;;;4.20;1.17;;;23.30;67.60;;;;;;5070090;28;20017;-71
2023/08/04 10:39:55;;;;;;;1.17;1.05;;;23.30;67.10;;;;;;5065658;28;20017;-70
2023/08/04 10:42:24;;;;;;;1.50;1.10;;;23.30;66.30;;;;;;5069936;28;20031;-71
2023/08/04 10:44:49;;;;;;;2.25;0.95;;;23.00;65.40;;;;;;5070026;28;20032;-71
2023/08/04 10:47:27;;;;;;;2.88;1.33;;;22.80;65.00;;;;;;5069560;28;20552;-70
2023/08/04 10:49:53;;;;;;;2.63;1.10;;;22.80;65.30;;;;;;5069902;28;20028;-70
2023/08/04 10:52:19;;;;;;;3.38;1.20;;;22.90;65.40;;;;;;5069218;28;20029;-70
2023/08/04 10:54:45;;;;;;;3.55;1.02;;;23.00;65.40;;;;;;5069747;28;20114;-70
2023/08/04 10:57:18;;;;;;;2.20;1.08;;;23.20;64.90;;;;;;5059803;28;20169;-70
2023/08/04 10:59:44;;;;;;;1.88;1.17;;;23.40;64.30;;;;;;5069773;28;20128;-70
2023/08/04 11:02:09;;;;;;;3.83;1.40;;;23.40;64.20;;;;;;5069698;28;20108;-70
2023/08/04 11:04:38;;;;;;;1.98;1.10;;;23.50;64.10;;;;;;5069827;28;20040;-70
2023/08/04 11:07:04;;;;;;;3.83;1.25;;;23.40;64.20;;;;;;5069642;28;20168;-70
2023/08/04 11:09:29;;;;;;;1.20;0.95;;;23.40;64.60;;;;;;5069895;28;20446;-70
2023/08/04 11:11:55;;;;;;;2.97;1.08;;;23.60;64.90;;;;;;5069631;28;20021;-70
2023/08/04 11:14:21;;;;;;;2.42;1.08;;;23.70;64.40;;;;;;5066126;28;20097;-70
2023/08/04 11:16:47;;;;;;;2.85;1.08;;;23.70;64.40;;;;;;5064061;28;20074;-70
2023/08/04 11:19:12;;;;;;;2.13;1.30;;;23.80;64.50;;;;;;5069615;28;20370;-70
2023/08/04 11:21:38;;;;;;;2.58;1.27;;;23.90;64.30;;;;;;5069693;28;20550;-70
2023/08/04 11:24:03;;;;;;;2.17;1.20;;;23.90;64.20;;;;;;5069844;28;20441;-68
2023/08/04 11:26:29;;;;;;;3.05;1.13;;;24.10;64.20;;;;;;5069789;28;20028;-68
2023/08/04 11:28:59;;;;;;;3.28;1.45;;;24.30;63.80;;;;;;5069582;28;20025;-68
2023/08/04 11:31:26;;;;;;;2.45;1.35;;;24.30;62.90;;;;;;5069616;28;20090;-68
2023/08/04 11:33:52;;;;;;;3.50;1.30;;;24.30;62.70;;;;;;5063321;28;20025;-68
2023/08/04 11:36:18;;;;;;;2.40;1.10;;;24.20;63.00;;;;;;5068018;28;20028;-68
2023/08/04 11:38:43;;;;;;;3.42;1.30;;;24.00;63.20;;;;;;5069482;28;20509;-68
2023/08/04 11:41:11;;;;;;;3.38;1.40;;;23.70;64.30;;;;;;5069421;28;20025;-68
2023/08/04 11:43:36;;;;;;;2.78;1.17;;;23.50;64.30;;;;;;5069140;28;20027;-68
2023/08/04 11:46:07;;;;;;;2.80;1.40;;;23.20;64.80;;;;;;5069228;28;20481;-68
2023/08/04 11:48:34;;;;;;;3.15;1.40;;;22.90;65.70;;;;;;5069254;28;20061;-68
2023/08/04 11:51:00;;;;;;;2.20;1.13;;;22.80;66.00;;;;;;5066779;28;20027;-68
2023/08/04 11:53:27;;;;;;;2.50;1.10;;;22.60;66.20;;;;;;5059315;28;20021;-68
2023/08/04 11:55:57;;;;;;;2.85;1.25;;;22.50;66.10;;;;;;5068903;28;20024;-68
2023/08/04 11:58:31;;;;;;;2.40;1.15;;;22.30;66.40;;;;;;5069389;28;20460;-68
2023/08/04 12:00:56;;;;;;;1.63;0.98;;;22.30;66.80;;;;;;5069380;28;20151;-68
2023/08/04 12:03:22;;;;;;;2.78;1.20;;;22.20;66.70;;;;;;5069358;28;20470;-70
2023/08/04 12:05:49;;;;;;;1.77;1.10;;;22.10;67.10;;;;;;5071382;28;20024;-70
2023/08/04 12:08:15;;;;;;;3.22;1.33;;;22.10;67.20;;;;;;5072746;28;20025;-70
2023/08/04 12:10:41;;;;;;;2.08;1.10;;;22.10;67.70;;;;;;5067475;28;20598;-70
2023/08/04 12:13:07;;;;;;;1.23;1.08;;;22.20;67.90;;;;;;5069887;28;20564;-70
2023/08/04 12:15:52;;;;;;;1.70;1.00;;;22.30;67.80;;;;;;5072417;28;20055;-70
2023/08/04 12:18:25;;;;;;;2.80;1.17;;;22.50;68.20;;;;;;5072584;28;20081;-70
2023/08/04 12:20:50;;;;;;;2.42;1.05;;;22.60;66.70;;;;;;5072481;28;20020;-70
2023/08/04 12:23:16;;;;;;;2.10;0.98;;;22.70;65.80;;;;;;5072345;28;20601;-71
2023/08/04 12:25:42;;;;;;;3.25;0.90;;;22.90;65.40;;;;;;5072686;28;20040;-70
2023/08/04 12:28:07;;;;;;;2.70;1.10;;;23.00;64.50;;;;;;5065639;28;20495;-70
2023/08/04 12:30:33;;;;;;;1.90;1.30;;;23.20;63.50;;;;;;5070640;28;20026;-71
2023/08/04 12:32:58;;;;;;;1.88;1.00;;;23.30;61.80;;;;;;5072730;28;20086;-69
2023/08/04 12:35:24;;;;;;;2.53;1.20;;;23.40;61.00;;;;;;5071136;28;20083;-69
2023/08/04 12:37:49;;;;;;;2.22;0.95;;;23.40;60.70;;;;;;5071959;28;20025;-69
2023/08/04 12:40:15;;;;;;;2.00;0.90;;;23.30;61.30;;;;;;5072352;28;20613;-69
2023/08/04 12:42:40;;;;;;;2.22;1.05;;;23.30;62.40;;;;;;5072180;28;20475;-68
2023/08/04 12:45:06;;;;;;;2.60;1.08;;;23.40;63.20;;;;;;5072104;28;20056;-68